Cape Balder — V7KA5 — position and weather

sailwx.info

Track history (hours):
 
Tides and Currents Weather Stations Pressure Air Temp Water Temp Dewpoint Dewpoint Depression Visibility Wind Speed Wind Dir Waves Ship Positions

Cape Balder

Last reported at 2017-Jul-16 08:54 UTC. Time now 2017-Jul-25 18:42 UTC.
Position N 30°49' E 032°19'.
Warning: this ship's position is 9 days out of date.

Length 274 m; draft 16.9 m.

Type: Ship. MMSI: 538005854.

Date/timePositionNaut miles runAvg speedWind from/ knotsBaromVisibWave heightAir tempDewpointWater temp
2017-Jul-16 08:54N 30°49' E 032°19'6 8.2
2017-Jul-16 08:12N 30°54' E 032°19'4 8.0
2017-Jul-16 07:39N 30°59' E 032°19'2 7.9
2017-Jul-16 07:21N 31°01' E 032°19'5 7.7
2017-Jul-16 06:41N 31°06' E 032°19'2 8.4
2017-Jul-16 06:30N 31°08' E 032°19'6 7.9
2017-Jul-16 05:42N 31°14' E 032°21'3 7.7
2017-Jul-16 05:17N 31°17' E 032°22'6 8.9
2017-Jul-16 04:36N 31°23' E 032°23'1 9.9
2017-Jul-16 04:31N 31°24' E 032°24'4 8.0
2017-Jul-16 03:58N 31°28' E 032°23'2 4.0
2017-Jul-16 03:30N 31°29' E 032°21'1 2.1
2017-Jul-16 03:01N 31°28' E 032°20'0 0.1
2017-Jul-16 02:17N 31°28' E 032°20'0 0.0
2017-Jul-16 01:29N 31°28' E 032°20'0 0.0
2017-Jul-16 00:58N 31°28' E 032°20'0 0.0
2017-Jul-16 00:28N 31°28' E 032°20'0 0.0
2017-Jul-15 23:58N 31°28' E 032°20'0 0.0
2017-Jul-15 23:28N 31°28' E 032°20'0 0.0
2017-Jul-15 22:58N 31°28' E 032°20'0 0.0
2017-Jul-15 22:30N 31°28' E 032°20'0 0.0
2017-Jul-15 22:00N 31°28' E 032°20'0 0.0
2017-Jul-15 21:30N 31°28' E 032°20'0 0.0
2017-Jul-15 20:57N 31°28' E 032°20'0 0.0
2017-Jul-15 20:29N 31°28' E 032°20'0 0.0
2017-Jul-15 19:59N 31°28' E 032°20'0 0.0
2017-Jul-15 18:20N 31°28' E 032°20'0 0.0
2017-Jul-15 17:58N 31°28' E 032°20'0 0.0
2017-Jul-15 17:28N 31°28' E 032°20'0 0.0
2017-Jul-15 16:58N 31°28' E 032°20'0 0.0
2017-Jul-15 16:28N 31°28' E 032°20'0 0.0
2017-Jul-15 15:51N 31°28' E 032°20'0 0.0
2017-Jul-15 15:30N 31°28' E 032°20'0 0.0
2017-Jul-15 14:57N 31°28' E 032°20'0 0.0
2017-Jul-15 12:59N 31°28' E 032°20'0 0.0
2017-Jul-15 12:29N 31°28' E 032°20'0 0.1
2017-Jul-15 11:59N 31°28' E 032°20'0 0.1
2017-Jul-15 11:29N 31°28' E 032°20'1 1.2
2017-Jul-15 11:00N 31°29' E 032°20'3 6.8
2017-Jul-15 10:30N 31°32' E 032°20'5 9.2
2017-Jul-15 10:00N 31°36' E 032°23'5 9.5
2017-Jul-15 09:30N 31°39' E 032°28'4 6.4
2017-Jul-15 08:49N 31°41' E 032°32'410.8
2017-Jul-15 08:25N 31°44' E 032°36'511.7
2017-Jul-15 08:00N 31°48' E 032°34'612.8
2017-Jul-15 07:30N 31°52' E 032°28'612.9
2017-Jul-15 07:00N 31°57' E 032°22'812.8
2017-Jul-15 06:24N 32°02' E 032°16'912.7
2017-Jul-15 05:43N 32°08' E 032°08'612.5
2017-Jul-15 05:15N 32°12' E 032°03'412.4
2017-Jul-15 04:58N 32°15' E 032°00'812.2
2017-Jul-15 04:18N 32°20' E 031°53'612.1
2017-Jul-15 03:46N 32°25' E 031°48'312.2
2017-Jul-15 03:30N 32°27' E 031°45'1912.2
2017-Jul-15 01:59N 32°39' E 031°29'812.5
2017-Jul-15 01:20N 32°45' E 031°22'412.5
2017-Jul-15 01:00N 32°48' E 031°18'2712.5
2017-Jul-14 22:50N 33°06' E 030°55'412.7
2017-Jul-14 22:30N 33°09' E 030°51'612.7
2017-Jul-14 22:00N 33°14' E 030°46'712.7
2017-Jul-14 21:29N 33°18' E 030°40'612.6
2017-Jul-14 21:00N 33°22' E 030°35'612.8
2017-Jul-14 20:30N 33°27' E 030°29'713.0
2017-Jul-14 20:00N 33°31' E 030°23'612.9
2017-Jul-14 19:30N 33°36' E 030°18'712.8
2017-Jul-14 18:59N 33°40' E 030°12'612.9
2017-Jul-14 18:30N 33°44' E 030°06'612.9
2017-Jul-14 18:00N 33°49' E 030°01'612.8
2017-Jul-14 17:30N 33°53' E 029°55'612.7
2017-Jul-14 17:00N 33°58' E 029°50'712.7
2017-Jul-14 16:25N 34°03' E 029°43'512.8
2017-Jul-14 16:00N 34°06' E 029°38'612.8
2017-Jul-14 15:30N 34°11' E 029°33'712.8
2017-Jul-14 14:59N 34°15' E 029°27'612.8
2017-Jul-14 14:30N 34°20' E 029°22'612.9
2017-Jul-14 14:00N 34°24' E 029°16'712.9
2017-Jul-14 13:28N 34°29' E 029°10'1012.9
2017-Jul-14 12:41N 34°36' E 029°01'512.8
2017-Jul-14 12:20N 34°39' E 028°57'512.9
2017-Jul-14 11:55N 34°42' E 028°52'512.9
2017-Jul-14 11:30N 34°46' E 028°47'612.8
2017-Jul-14 11:00N 34°50' E 028°42'913.0
2017-Jul-14 10:18N 34°57' E 028°34'613.3
2017-Jul-14 09:53N 35°01' E 028°29'18913.3
2017-Jul-13 19:40N 37°24' E 025°55'212.9
2017-Jul-13 19:30N 37°25' E 025°54'612.8
2017-Jul-13 19:01N 37°32' E 025°52'713.2
2017-Jul-13 18:30N 37°38' E 025°51'13112.3
2017-Jul-13 07:49N 39°49' E 025°35'1513.6
2017-Jul-13 06:42N 39°58' E 025°51'413.7
2017-Jul-13 06:25N 39°59' E 025°56'613.3
2017-Jul-13 06:00N 40°01' E 026°03'712.7
2017-Jul-13 05:29N 40°02' E 026°11'3212.1
2017-Jul-13 02:53N 40°24' E 026°41'3 8.4
2017-Jul-13 02:29N 40°26' E 026°44'5 7.2
2017-Jul-13 01:52N 40°28' E 026°49'  
2017-Jul-08 15:55N 45°06' E 036°34'0 0.0
2017-Jul-08 06:22N 45°06' E 036°34'0 0.0
2017-Jul-08 04:39N 45°06' E 036°34'0 0.0
2017-Jul-08 04:18N 45°06' E 036°34'0 0.0
2017-Jul-08 04:00N 45°06' E 036°34'0 0.0
2017-Jul-08 03:30N 45°06' E 036°34'0 0.0
2017-Jul-08 02:50N 45°06' E 036°34'0 0.0
2017-Jul-08 02:17N 45°06' E 036°34'0 0.0
2017-Jul-08 01:59N 45°06' E 036°34'0 0.0
2017-Jul-08 00:47N 45°06' E 036°34'0 0.0
2017-Jul-08 00:22N 45°06' E 036°34'0 0.0
2017-Jul-07 23:55N 45°06' E 036°34'0 0.0
2017-Jul-07 22:34N 45°06' E 036°34'0 0.1
2017-Jul-07 22:31N 45°06' E 036°34'0 0.0
2017-Jul-07 21:57N 45°06' E 036°34'0 0.0
2017-Jul-07 21:12N 45°06' E 036°34'0 0.0
2017-Jul-07 21:00N 45°06' E 036°34'0 0.0
2017-Jul-07 19:50N 45°06' E 036°34'0 0.0
2017-Jul-07 16:34N 45°06' E 036°34'0 0.1
2017-Jul-07 16:28N 45°06' E 036°34'0 0.0
2017-Jul-07 15:55N 45°06' E 036°34'0 0.0
2017-Jul-07 15:27N 45°06' E 036°34'0 0.1
2017-Jul-07 15:00N 45°06' E 036°34'0 0.0
2017-Jul-07 14:00N 45°06' E 036°34'0 0.0
2017-Jul-07 13:27N 45°06' E 036°34'0 0.0
2017-Jul-07 12:59N 45°06' E 036°34'0 0.0
2017-Jul-07 12:23N 45°06' E 036°34'0 0.0
2017-Jul-07 11:59N 45°06' E 036°34'0 0.0
2017-Jul-07 11:29N 45°06' E 036°34'0 0.1
2017-Jul-07 10:55N 45°06' E 036°34'0 0.2
2017-Jul-07 10:07N 45°06' E 036°34'0 0.0
2017-Jul-07 09:55N 45°06' E 036°34'0 0.1
2017-Jul-07 09:30N 45°06' E 036°34'0 0.0
2017-Jul-07 09:00N 45°06' E 036°34'0 0.1
2017-Jul-07 08:30N 45°06' E 036°34'0 0.1
2017-Jul-07 07:59N 45°06' E 036°34'1 1.1
2017-Jul-07 07:30N 45°06' E 036°35'1 1.8
2017-Jul-07 06:59N 45°06' E 036°34'  
Track history (hours):
 
Tides and Currents Weather Stations Pressure Air Temp Water Temp Dewpoint Dewpoint Depression Visibility Wind Speed Wind Dir Waves Ship Positions

Cape Balder

Last reported at 2017-Jul-16 08:54 UTC. Time now 2017-Jul-25 18:42 UTC.
Position N 30°49' E 032°19'.
Warning: this ship's position is 9 days out of date.

Length 274 m; draft 16.9 m.

Type: Ship. MMSI: 538005854.

Date/timePositionNaut miles runAvg speedWind from/ knotsBaromVisibWave heightAir tempDewpointWater temp
2017-Jul-16 08:54N 30°49' E 032°19'6 8.2
2017-Jul-16 08:12N 30°54' E 032°19'4 8.0
2017-Jul-16 07:39N 30°59' E 032°19'2 7.9
2017-Jul-16 07:21N 31°01' E 032°19'5 7.7
2017-Jul-16 06:41N 31°06' E 032°19'2 8.4
2017-Jul-16 06:30N 31°08' E 032°19'6 7.9
2017-Jul-16 05:42N 31°14' E 032°21'3 7.7
2017-Jul-16 05:17N 31°17' E 032°22'6 8.9
2017-Jul-16 04:36N 31°23' E 032°23'1 9.9
2017-Jul-16 04:31N 31°24' E 032°24'4 8.0
2017-Jul-16 03:58N 31°28' E 032°23'2 4.0
2017-Jul-16 03:30N 31°29' E 032°21'1 2.1
2017-Jul-16 03:01N 31°28' E 032°20'0 0.1
2017-Jul-16 02:17N 31°28' E 032°20'0 0.0
2017-Jul-16 01:29N 31°28' E 032°20'0 0.0
2017-Jul-16 00:58N 31°28' E 032°20'0 0.0
2017-Jul-16 00:28N 31°28' E 032°20'0 0.0
2017-Jul-15 23:58N 31°28' E 032°20'0 0.0
2017-Jul-15 23:28N 31°28' E 032°20'0 0.0
2017-Jul-15 22:58N 31°28' E 032°20'0 0.0
2017-Jul-15 22:30N 31°28' E 032°20'0 0.0
2017-Jul-15 22:00N 31°28' E 032°20'0 0.0
2017-Jul-15 21:30N 31°28' E 032°20'0 0.0
2017-Jul-15 20:57N 31°28' E 032°20'0 0.0
2017-Jul-15 20:29N 31°28' E 032°20'0 0.0
2017-Jul-15 19:59N 31°28' E 032°20'0 0.0
2017-Jul-15 18:20N 31°28' E 032°20'0 0.0
2017-Jul-15 17:58N 31°28' E 032°20'0 0.0
2017-Jul-15 17:28N 31°28' E 032°20'0 0.0
2017-Jul-15 16:58N 31°28' E 032°20'0 0.0
2017-Jul-15 16:28N 31°28' E 032°20'0 0.0
2017-Jul-15 15:51N 31°28' E 032°20'0 0.0
2017-Jul-15 15:30N 31°28' E 032°20'0 0.0
2017-Jul-15 14:57N 31°28' E 032°20'0 0.0
2017-Jul-15 12:59N 31°28' E 032°20'0 0.0
2017-Jul-15 12:29N 31°28' E 032°20'0 0.1
2017-Jul-15 11:59N 31°28' E 032°20'0 0.1
2017-Jul-15 11:29N 31°28' E 032°20'1 1.2
2017-Jul-15 11:00N 31°29' E 032°20'3 6.8
2017-Jul-15 10:30N 31°32' E 032°20'5 9.2
2017-Jul-15 10:00N 31°36' E 032°23'5 9.5
2017-Jul-15 09:30N 31°39' E 032°28'4 6.4
2017-Jul-15 08:49N 31°41' E 032°32'410.8
2017-Jul-15 08:25N 31°44' E 032°36'511.7
2017-Jul-15 08:00N 31°48' E 032°34'612.8
2017-Jul-15 07:30N 31°52' E 032°28'612.9
2017-Jul-15 07:00N 31°57' E 032°22'812.8
2017-Jul-15 06:24N 32°02' E 032°16'912.7
2017-Jul-15 05:43N 32°08' E 032°08'612.5
2017-Jul-15 05:15N 32°12' E 032°03'412.4
2017-Jul-15 04:58N 32°15' E 032°00'812.2
2017-Jul-15 04:18N 32°20' E 031°53'612.1
2017-Jul-15 03:46N 32°25' E 031°48'312.2
2017-Jul-15 03:30N 32°27' E 031°45'1912.2
2017-Jul-15 01:59N 32°39' E 031°29'812.5
2017-Jul-15 01:20N 32°45' E 031°22'412.5
2017-Jul-15 01:00N 32°48' E 031°18'2712.5
2017-Jul-14 22:50N 33°06' E 030°55'412.7
2017-Jul-14 22:30N 33°09' E 030°51'612.7
2017-Jul-14 22:00N 33°14' E 030°46'712.7
2017-Jul-14 21:29N 33°18' E 030°40'612.6
2017-Jul-14 21:00N 33°22' E 030°35'612.8
2017-Jul-14 20:30N 33°27' E 030°29'713.0
2017-Jul-14 20:00N 33°31' E 030°23'612.9
2017-Jul-14 19:30N 33°36' E 030°18'712.8
2017-Jul-14 18:59N 33°40' E 030°12'612.9
2017-Jul-14 18:30N 33°44' E 030°06'612.9
2017-Jul-14 18:00N 33°49' E 030°01'612.8
2017-Jul-14 17:30N 33°53' E 029°55'612.7
2017-Jul-14 17:00N 33°58' E 029°50'712.7
2017-Jul-14 16:25N 34°03' E 029°43'512.8
2017-Jul-14 16:00N 34°06' E 029°38'612.8
2017-Jul-14 15:30N 34°11' E 029°33'712.8
2017-Jul-14 14:59N 34°15' E 029°27'612.8
2017-Jul-14 14:30N 34°20' E 029°22'612.9
2017-Jul-14 14:00N 34°24' E 029°16'712.9
2017-Jul-14 13:28N 34°29' E 029°10'1012.9
2017-Jul-14 12:41N 34°36' E 029°01'512.8
2017-Jul-14 12:20N 34°39' E 028°57'512.9
2017-Jul-14 11:55N 34°42' E 028°52'512.9
2017-Jul-14 11:30N 34°46' E 028°47'612.8
2017-Jul-14 11:00N 34°50' E 028°42'913.0
2017-Jul-14 10:18N 34°57' E 028°34'613.3
2017-Jul-14 09:53N 35°01' E 028°29'18913.3
2017-Jul-13 19:40N 37°24' E 025°55'212.9
2017-Jul-13 19:30N 37°25' E 025°54'612.8
2017-Jul-13 19:01N 37°32' E 025°52'713.2
2017-Jul-13 18:30N 37°38' E 025°51'13112.3
2017-Jul-13 07:49N 39°49' E 025°35'1513.6
2017-Jul-13 06:42N 39°58' E 025°51'413.7
2017-Jul-13 06:25N 39°59' E 025°56'613.3
2017-Jul-13 06:00N 40°01' E 026°03'712.7
2017-Jul-13 05:29N 40°02' E 026°11'3212.1
2017-Jul-13 02:53N 40°24' E 026°41'3 8.4
2017-Jul-13 02:29N 40°26' E 026°44'5 7.2
2017-Jul-13 01:52N 40°28' E 026°49'  
2017-Jul-08 15:55N 45°06' E 036°34'0 0.0
2017-Jul-08 06:22N 45°06' E 036°34'0 0.0
2017-Jul-08 04:39N 45°06' E 036°34'0 0.0
2017-Jul-08 04:18N 45°06' E 036°34'0 0.0
2017-Jul-08 04:00N 45°06' E 036°34'0 0.0
2017-Jul-08 03:30N 45°06' E 036°34'0 0.0
2017-Jul-08 02:50N 45°06' E 036°34'0 0.0
2017-Jul-08 02:17N 45°06' E 036°34'0 0.0
2017-Jul-08 01:59N 45°06' E 036°34'0 0.0
2017-Jul-08 00:47N 45°06' E 036°34'0 0.0
2017-Jul-08 00:22N 45°06' E 036°34'0 0.0
2017-Jul-07 23:55N 45°06' E 036°34'0 0.0
2017-Jul-07 22:34N 45°06' E 036°34'0 0.1
2017-Jul-07 22:31N 45°06' E 036°34'0 0.0
2017-Jul-07 21:57N 45°06' E 036°34'0 0.0
2017-Jul-07 21:12N 45°06' E 036°34'0 0.0
2017-Jul-07 21:00N 45°06' E 036°34'0 0.0
2017-Jul-07 19:50N 45°06' E 036°34'0 0.0
2017-Jul-07 16:34N 45°06' E 036°34'0 0.1
2017-Jul-07 16:28N 45°06' E 036°34'0 0.0
2017-Jul-07 15:55N 45°06' E 036°34'0 0.0
2017-Jul-07 15:27N 45°06' E 036°34'0 0.1
2017-Jul-07 15:00N 45°06' E 036°34'0 0.0
2017-Jul-07 14:00N 45°06' E 036°34'0 0.0
2017-Jul-07 13:27N 45°06' E 036°34'0 0.0
2017-Jul-07 12:59N 45°06' E 036°34'0 0.0
2017-Jul-07 12:23N 45°06' E 036°34'0 0.0
2017-Jul-07 11:59N 45°06' E 036°34'0 0.0
2017-Jul-07 11:29N 45°06' E 036°34'0 0.1
2017-Jul-07 10:55N 45°06' E 036°34'0 0.2
2017-Jul-07 10:07N 45°06' E 036°34'0 0.0
2017-Jul-07 09:55N 45°06' E 036°34'0 0.1
2017-Jul-07 09:30N 45°06' E 036°34'0 0.0
2017-Jul-07 09:00N 45°06' E 036°34'0 0.1
2017-Jul-07 08:30N 45°06' E 036°34'0 0.1
2017-Jul-07 07:59N 45°06' E 036°34'1 1.1
2017-Jul-07 07:30N 45°06' E 036°35'1 1.8
2017-Jul-07 06:59N 45°06' E 036°34'  

Dump ship's entire track history